sensor_id;sensor_type;location;lat;lon;timestamp;temperature;humidity
10581;DHT22;5338;51.500;6.802;2022-10-16T00:00:34;14.00;99.90
10581;DHT22;5338;51.500;6.802;2022-10-16T00:03:01;14.00;99.90
10581;DHT22;5338;51.500;6.802;2022-10-16T00:07:56;13.80;99.90
10581;DHT22;5338;51.500;6.802;2022-10-16T00:12:50;14.30;99.90
10581;DHT22;5338;51.500;6.802;2022-10-16T00:17:45;13.80;99.90
10581;DHT22;5338;51.500;6.802;2022-10-16T00:25:06;14.00;99.90
10581;DHT22;5338;51.500;6.802;2022-10-16T00:27:34;13.80;99.90
10581;DHT22;5338;51.500;6.802;2022-10-16T00:30:00;13.80;99.90
10581;DHT22;5338;51.500;6.802;2022-10-16T00:32:27;13.80;99.90
10581;DHT22;5338;51.500;6.802;2022-10-16T00:34:56;13.80;99.90
10581;DHT22;5338;51.500;6.802;2022-10-16T00:39:49;14.70;99.90
10581;DHT22;5338;51.500;6.802;2022-10-16T00:42:18;13.80;99.90
10581;DHT22;5338;51.500;6.802;2022-10-16T00:44:48;13.80;99.90
10581;DHT22;5338;51.500;6.802;2022-10-16T00:47:20;13.80;99.90
10581;DHT22;5338;51.500;6.802;2022-10-16T00:49:50;13.80;99.90
10581;DHT22;5338;51.500;6.802;2022-10-16T00:52:19;13.80;99.90
10581;DHT22;5338;51.500;6.802;2022-10-16T00:57:13;13.90;99.90
10581;DHT22;5338;51.500;6.802;2022-10-16T00:59:41;13.80;99.90
10581;DHT22;5338;51.500;6.802;2022-10-16T01:02:11;13.90;99.90
10581;DHT22;5338;51.500;6.802;2022-10-16T01:04:40;13.80;99.90
10581;DHT22;5338;51.500;6.802;2022-10-16T01:07:12;13.70;99.90
10581;DHT22;5338;51.500;6.802;2022-10-16T01:09:51;13.70;99.90
10581;DHT22;5338;51.500;6.802;2022-10-16T01:12:25;13.80;99.90
10581;DHT22;5338;51.500;6.802;2022-10-16T01:14:54;13.30;99.90
10581;DHT22;5338;51.500;6.802;2022-10-16T01:17:26;13.60;99.90
10581;DHT22;5338;51.500;6.802;2022-10-16T01:20:07;13.70;99.90
10581;DHT22;5338;51.500;6.802;2022-10-16T01:22:42;13.60;99.90
10581;DHT22;5338;51.500;6.802;2022-10-16T01:25:15;13.50;99.90
10581;DHT22;5338;51.500;6.802;2022-10-16T01:27:45;13.60;99.90
10581;DHT22;5338;51.500;6.802;2022-10-16T01:30:17;13.60;99.90
10581;DHT22;5338;51.500;6.802;2022-10-16T01:32:49;13.60;99.90
10581;DHT22;5338;51.500;6.802;2022-10-16T01:35:21;13.60;99.90
10581;DHT22;5338;51.500;6.802;2022-10-16T01:37:52;13.60;99.90
10581;DHT22;5338;51.500;6.802;2022-10-16T01:40:21;13.90;99.90
10581;DHT22;5338;51.500;6.802;2022-10-16T01:42:53;13.50;99.90
10581;DHT22;5338;51.500;6.802;2022-10-16T01:45:22;13.60;99.90
10581;DHT22;5338;51.500;6.802;2022-10-16T01:47:49;13.30;99.90
10581;DHT22;5338;51.500;6.802;2022-10-16T01:50:18;13.50;99.90
10581;DHT22;5338;51.500;6.802;2022-10-16T01:52:49;13.40;99.90
10581;DHT22;5338;51.500;6.802;2022-10-16T01:55:21;13.60;99.90
10581;DHT22;5338;51.500;6.802;2022-10-16T01:57:51;13.60;99.90
10581;DHT22;5338;51.500;6.802;2022-10-16T02:00:20;13.60;99.90
10581;DHT22;5338;51.500;6.802;2022-10-16T02:02:50;13.60;99.90
10581;DHT22;5338;51.500;6.802;2022-10-16T02:05:22;13.50;99.90
10581;DHT22;5338;51.500;6.802;2022-10-16T02:07:50;13.90;99.90
10581;DHT22;5338;51.500;6.802;2022-10-16T02:10:17;13.70;99.90
10581;DHT22;5338;51.500;6.802;2022-10-16T02:12:48;13.90;99.90
10581;DHT22;5338;51.500;6.802;2022-10-16T02:15:17;13.70;99.90
10581;DHT22;5338;51.500;6.802;2022-10-16T02:22:41;13.70;99.90
10581;DHT22;5338;51.500;6.802;2022-10-16T02:25:11;13.60;99.90
10581;DHT22;5338;51.500;6.802;2022-10-16T02:27:47;13.50;99.90
10581;DHT22;5338;51.500;6.802;2022-10-16T02:30:21;13.60;99.90
10581;DHT22;5338;51.500;6.802;2022-10-16T02:32:51;13.60;99.90
10581;DHT22;5338;51.500;6.802;2022-10-16T02:35:20;13.70;99.90
10581;DHT22;5338;51.500;6.802;2022-10-16T02:37:48;13.50;99.90
10581;DHT22;5338;51.500;6.802;2022-10-16T02:40:16;13.50;99.90
10581;DHT22;5338;51.500;6.802;2022-10-16T02:42:43;13.60;99.90
10581;DHT22;5338;51.500;6.802;2022-10-16T02:45:11;13.50;99.90
10581;DHT22;5338;51.500;6.802;2022-10-16T02:47:39;13.70;99.90
10581;DHT22;5338;51.500;6.802;2022-10-16T02:50:06;13.50;99.90
10581;DHT22;5338;51.500;6.802;2022-10-16T02:55:00;13.80;99.90
10581;DHT22;5338;51.500;6.802;2022-10-16T02:57:27;13.60;99.90
10581;DHT22;5338;51.500;6.802;2022-10-16T02:59:54;13.30;99.90
10581;DHT22;5338;51.500;6.802;2022-10-16T03:04:49;13.50;99.90
10581;DHT22;5338;51.500;6.802;2022-10-16T03:14:37;13.80;99.90
10581;DHT22;5338;51.500;6.802;2022-10-16T03:17:05;13.40;99.90
10581;DHT22;5338;51.500;6.802;2022-10-16T03:19:32;13.80;99.90
10581;DHT22;5338;51.500;6.802;2022-10-16T03:22:00;13.60;99.90
10581;DHT22;5338;51.500;6.802;2022-10-16T03:29:21;13.50;99.90
10581;DHT22;5338;51.500;6.802;2022-10-16T03:31:48;13.70;99.90
10581;DHT22;5338;51.500;6.802;2022-10-16T03:34:15;13.80;99.90
10581;DHT22;5338;51.500;6.802;2022-10-16T03:39:10;13.60;99.90
10581;DHT22;5338;51.500;6.802;2022-10-16T03:41:37;13.50;99.90
10581;DHT22;5338;51.500;6.802;2022-10-16T03:44:03;13.50;99.90
10581;DHT22;5338;51.500;6.802;2022-10-16T03:48:57;13.70;99.90
10581;DHT22;5338;51.500;6.802;2022-10-16T03:53:51;13.60;99.90
10581;DHT22;5338;51.500;6.802;2022-10-16T03:56:19;13.60;99.90
10581;DHT22;5338;51.500;6.802;2022-10-16T03:58:46;13.90;99.90
10581;DHT22;5338;51.500;6.802;2022-10-16T04:06:07;13.70;99.90
10581;DHT22;5338;51.500;6.802;2022-10-16T04:11:02;13.50;99.90
10581;DHT22;5338;51.500;6.802;2022-10-16T04:13:31;13.60;99.90
10581;DHT22;5338;51.500;6.802;2022-10-16T04:15:57;13.70;99.90
10581;DHT22;5338;51.500;6.802;2022-10-16T04:20:52;13.70;99.90
10581;DHT22;5338;51.500;6.802;2022-10-16T04:25:48;13.60;99.90
10581;DHT22;5338;51.500;6.802;2022-10-16T04:30:43;14.70;99.90
10581;DHT22;5338;51.500;6.802;2022-10-16T04:40:32;13.80;99.90
10581;DHT22;5338;51.500;6.802;2022-10-16T04:47:58;13.70;99.90
10581;DHT22;5338;51.500;6.802;2022-10-16T04:52:52;13.70;99.90
10581;DHT22;5338;51.500;6.802;2022-10-16T04:57:47;13.70;99.90
10581;DHT22;5338;51.500;6.802;2022-10-16T05:02:41;13.70;99.90
10581;DHT22;5338;51.500;6.802;2022-10-16T05:05:09;13.40;99.90
10581;DHT22;5338;51.500;6.802;2022-10-16T05:10:04;13.30;99.90
10581;DHT22;5338;51.500;6.802;2022-10-16T05:14:58;13.50;99.90
10581;DHT22;5338;51.500;6.802;2022-10-16T05:19:52;13.60;99.90
10581;DHT22;5338;51.500;6.802;2022-10-16T05:22:20;13.50;99.90
10581;DHT22;5338;51.500;6.802;2022-10-16T05:24:47;13.40;99.90
10581;DHT22;5338;51.500;6.802;2022-10-16T05:27:14;13.40;99.90
10581;DHT22;5338;51.500;6.802;2022-10-16T05:29:44;13.50;99.90
10581;DHT22;5338;51.500;6.802;2022-10-16T05:32:12;13.40;99.90
10581;DHT22;5338;51.500;6.802;2022-10-16T05:34:39;13.60;99.90
10581;DHT22;5338;51.500;6.802;2022-10-16T05:37:06;13.90;99.90
10581;DHT22;5338;51.500;6.802;2022-10-16T05:39:34;13.60;99.90
10581;DHT22;5338;51.500;6.802;2022-10-16T05:42:02;13.50;99.90
10581;DHT22;5338;51.500;6.802;2022-10-16T05:46:56;13.40;99.90
10581;DHT22;5338;51.500;6.802;2022-10-16T05:56:45;13.60;99.90
10581;DHT22;5338;51.500;6.802;2022-10-16T06:01:39;13.60;99.90
10581;DHT22;5338;51.500;6.802;2022-10-16T06:04:06;13.60;99.90
10581;DHT22;5338;51.500;6.802;2022-10-16T06:11:30;13.70;99.90
10581;DHT22;5338;51.500;6.802;2022-10-16T06:14:00;13.80;99.90
10581;DHT22;5338;51.500;6.802;2022-10-16T06:16:28;13.40;99.90
10581;DHT22;5338;51.500;6.802;2022-10-16T06:18:55;13.50;99.90
10581;DHT22;5338;51.500;6.802;2022-10-16T06:21:24;13.50;99.90
10581;DHT22;5338;51.500;6.802;2022-10-16T06:23:51;13.70;99.90
10581;DHT22;5338;51.500;6.802;2022-10-16T06:26:20;13.70;99.90
10581;DHT22;5338;51.500;6.802;2022-10-16T06:31:17;13.70;99.90
10581;DHT22;5338;51.500;6.802;2022-10-16T06:33:44;13.40;99.90
10581;DHT22;5338;51.500;6.802;2022-10-16T06:36:14;13.60;99.90
10581;DHT22;5338;51.500;6.802;2022-10-16T06:41:11;13.60;99.90
10581;DHT22;5338;51.500;6.802;2022-10-16T06:43:38;13.80;99.90
10581;DHT22;5338;51.500;6.802;2022-10-16T06:46:06;13.80;99.90
10581;DHT22;5338;51.500;6.802;2022-10-16T06:48:36;13.80;99.90
10581;DHT22;5338;51.500;6.802;2022-10-16T06:51:04;13.60;99.90
10581;DHT22;5338;51.500;6.802;2022-10-16T06:53:33;13.50;99.90
10581;DHT22;5338;51.500;6.802;2022-10-16T06:56:07;13.80;99.90
10581;DHT22;5338;51.500;6.802;2022-10-16T06:58:38;13.90;99.90
10581;DHT22;5338;51.500;6.802;2022-10-16T07:01:05;13.70;99.90
10581;DHT22;5338;51.500;6.802;2022-10-16T07:03:35;13.90;99.90
10581;DHT22;5338;51.500;6.802;2022-10-16T07:06:03;13.40;99.90
10581;DHT22;5338;51.500;6.802;2022-10-16T07:08:31;13.80;99.90
10581;DHT22;5338;51.500;6.802;2022-10-16T07:11:00;13.60;99.90
10581;DHT22;5338;51.500;6.802;2022-10-16T07:15:54;12.80;99.90
10581;DHT22;5338;51.500;6.802;2022-10-16T07:20:52;13.80;99.90
10581;DHT22;5338;51.500;6.802;2022-10-16T07:23:20;13.60;99.90
10581;DHT22;5338;51.500;6.802;2022-10-16T07:25:53;13.80;99.90
10581;DHT22;5338;51.500;6.802;2022-10-16T07:28:20;13.80;99.90
10581;DHT22;5338;51.500;6.802;2022-10-16T07:30:47;14.00;99.90
10581;DHT22;5338;51.500;6.802;2022-10-16T07:33:14;14.30;99.90
10581;DHT22;5338;51.500;6.802;2022-10-16T07:35:48;14.30;99.90
10581;DHT22;5338;51.500;6.802;2022-10-16T07:38:16;14.30;99.90
10581;DHT22;5338;51.500;6.802;2022-10-16T07:40:43;14.60;99.90
10581;DHT22;5338;51.500;6.802;2022-10-16T07:43:10;14.50;99.90
10581;DHT22;5338;51.500;6.802;2022-10-16T07:45:37;14.70;99.90
10581;DHT22;5338;51.500;6.802;2022-10-16T07:48:04;15.00;99.90
10581;DHT22;5338;51.500;6.802;2022-10-16T07:55:27;14.80;99.90
10581;DHT22;5338;51.500;6.802;2022-10-16T07:57:54;14.90;99.90
10581;DHT22;5338;51.500;6.802;2022-10-16T08:02:48;15.20;99.90
10581;DHT22;5338;51.500;6.802;2022-10-16T08:05:15;14.70;99.90
10581;DHT22;5338;51.500;6.802;2022-10-16T08:07:42;14.90;99.90
10581;DHT22;5338;51.500;6.802;2022-10-16T08:10:15;15.00;99.90
10581;DHT22;5338;51.500;6.802;2022-10-16T08:12:44;15.00;99.90
10581;DHT22;5338;51.500;6.802;2022-10-16T08:15:11;15.30;99.90
10581;DHT22;5338;51.500;6.802;2022-10-16T08:17:40;15.20;99.90
10581;DHT22;5338;51.500;6.802;2022-10-16T08:20:08;15.50;99.90
10581;DHT22;5338;51.500;6.802;2022-10-16T08:22:35;15.40;99.90
10581;DHT22;5338;51.500;6.802;2022-10-16T08:25:02;15.50;99.90
10581;DHT22;5338;51.500;6.802;2022-10-16T08:27:31;15.50;99.90
10581;DHT22;5338;51.500;6.802;2022-10-16T08:29:59;15.30;99.90
10581;DHT22;5338;51.500;6.802;2022-10-16T08:32:26;15.80;99.90
10581;DHT22;5338;51.500;6.802;2022-10-16T08:34:53;15.00;99.90
10581;DHT22;5338;51.500;6.802;2022-10-16T08:39:46;15.60;99.90
10581;DHT22;5338;51.500;6.802;2022-10-16T08:42:24;16.10;99.90
10581;DHT22;5338;51.500;6.802;2022-10-16T08:45:21;15.60;99.90
10581;DHT22;5338;51.500;6.802;2022-10-16T08:47:59;15.70;99.90
10581;DHT22;5338;51.500;6.802;2022-10-16T08:50:29;15.60;99.90
10581;DHT22;5338;51.500;6.802;2022-10-16T08:52:57;15.90;99.90
10581;DHT22;5338;51.500;6.802;2022-10-16T08:55:30;15.70;99.90
10581;DHT22;5338;51.500;6.802;2022-10-16T08:57:59;15.70;99.90
10581;DHT22;5338;51.500;6.802;2022-10-16T09:00:28;15.70;99.90
10581;DHT22;5338;51.500;6.802;2022-10-16T09:03:03;15.90;99.90
10581;DHT22;5338;51.500;6.802;2022-10-16T09:06:02;15.80;99.90
10581;DHT22;5338;51.500;6.802;2022-10-16T09:08:41;16.30;99.90
10581;DHT22;5338;51.500;6.802;2022-10-16T09:11:15;16.10;99.90
10581;DHT22;5338;51.500;6.802;2022-10-16T09:13:50;16.10;99.90
10581;DHT22;5338;51.500;6.802;2022-10-16T09:16:22;15.90;99.90
10581;DHT22;5338;51.500;6.802;2022-10-16T09:18:54;16.10;99.90
10581;DHT22;5338;51.500;6.802;2022-10-16T09:21:25;16.20;99.90
10581;DHT22;5338;51.500;6.802;2022-10-16T09:23:52;16.30;99.90
10581;DHT22;5338;51.500;6.802;2022-10-16T09:28:47;16.50;99.90
10581;DHT22;5338;51.500;6.802;2022-10-16T09:31:18;17.20;99.90
10581;DHT22;5338;51.500;6.802;2022-10-16T09:33:50;16.60;99.90
10581;DHT22;5338;51.500;6.802;2022-10-16T09:36:19;16.80;99.90
10581;DHT22;5338;51.500;6.802;2022-10-16T09:41:17;16.40;99.90
10581;DHT22;5338;51.500;6.802;2022-10-16T09:43:52;16.30;99.90
10581;DHT22;5338;51.500;6.802;2022-10-16T09:46:24;16.60;99.90
10581;DHT22;5338;51.500;6.802;2022-10-16T09:48:54;18.90;99.90
10581;DHT22;5338;51.500;6.802;2022-10-16T09:51:24;16.80;99.90
10581;DHT22;5338;51.500;6.802;2022-10-16T09:53:56;16.90;99.90
10581;DHT22;5338;51.500;6.802;2022-10-16T09:56:25;16.80;99.90
10581;DHT22;5338;51.500;6.802;2022-10-16T09:58:54;17.00;99.90
10581;DHT22;5338;51.500;6.802;2022-10-16T10:01:24;17.10;99.90
10581;DHT22;5338;51.500;6.802;2022-10-16T10:03:55;17.20;99.90
10581;DHT22;5338;51.500;6.802;2022-10-16T10:06:28;17.00;99.90
10581;DHT22;5338;51.500;6.802;2022-10-16T10:09:02;17.40;99.90
10581;DHT22;5338;51.500;6.802;2022-10-16T10:11:41;17.20;99.90
10581;DHT22;5338;51.500;6.802;2022-10-16T10:14:18;18.00;99.90
10581;DHT22;5338;51.500;6.802;2022-10-16T10:16:46;18.40;99.90
10581;DHT22;5338;51.500;6.802;2022-10-16T10:19:16;19.10;99.90
10581;DHT22;5338;51.500;6.802;2022-10-16T10:21:43;18.60;99.90
10581;DHT22;5338;51.500;6.802;2022-10-16T10:24:11;19.00;99.90
10581;DHT22;5338;51.500;6.802;2022-10-16T10:26:42;19.60;99.90
10581;DHT22;5338;51.500;6.802;2022-10-16T10:29:17;19.40;99.90
10581;DHT22;5338;51.500;6.802;2022-10-16T10:31:52;19.70;99.90
10581;DHT22;5338;51.500;6.802;2022-10-16T10:34:34;20.00;99.90
10581;DHT22;5338;51.500;6.802;2022-10-16T10:37:07;20.30;99.90
10581;DHT22;5338;51.500;6.802;2022-10-16T10:39:41;20.60;99.90
10581;DHT22;5338;51.500;6.802;2022-10-16T10:42:17;21.10;99.90
10581;DHT22;5338;51.500;6.802;2022-10-16T10:45:14;23.40;99.90
10581;DHT22;5338;51.500;6.802;2022-10-16T10:47:49;21.30;99.90
10581;DHT22;5338;51.500;6.802;2022-10-16T10:50:24;21.60;99.90
10581;DHT22;5338;51.500;6.802;2022-10-16T10:52:58;21.60;99.90
10581;DHT22;5338;51.500;6.802;2022-10-16T10:55:33;21.00;99.90
10581;DHT22;5338;51.500;6.802;2022-10-16T10:58:29;21.50;99.90
10581;DHT22;5338;51.500;6.802;2022-10-16T11:01:04;21.50;99.90
10581;DHT22;5338;51.500;6.802;2022-10-16T11:03:51;21.40;99.90
10581;DHT22;5338;51.500;6.802;2022-10-16T11:06:26;21.60;99.90
10581;DHT22;5338;51.500;6.802;2022-10-16T11:08:59;21.70;99.90
10581;DHT22;5338;51.500;6.802;2022-10-16T11:11:30;22.50;99.90
10581;DHT22;5338;51.500;6.802;2022-10-16T11:14:02;22.60;99.90
10581;DHT22;5338;51.500;6.802;2022-10-16T11:16:33;22.70;97.90
10581;DHT22;5338;51.500;6.802;2022-10-16T11:19:09;22.60;94.00
10581;DHT22;5338;51.500;6.802;2022-10-16T11:21:44;22.00;99.90
10581;DHT22;5338;51.500;6.802;2022-10-16T11:24:20;21.90;99.90
10581;DHT22;5338;51.500;6.802;2022-10-16T11:26:49;22.10;99.90
10581;DHT22;5338;51.500;6.802;2022-10-16T11:29:23;22.50;99.90
10581;DHT22;5338;51.500;6.802;2022-10-16T11:31:53;23.00;99.90
10581;DHT22;5338;51.500;6.802;2022-10-16T11:34:25;23.40;98.50
10581;DHT22;5338;51.500;6.802;2022-10-16T11:36:58;22.50;93.50
10581;DHT22;5338;51.500;6.802;2022-10-16T11:39:30;22.80;95.40
10581;DHT22;5338;51.500;6.802;2022-10-16T11:42:01;23.00;99.90
10581;DHT22;5338;51.500;6.802;2022-10-16T11:44:47;23.40;99.90
10581;DHT22;5338;51.500;6.802;2022-10-16T11:47:26;23.40;95.70
10581;DHT22;5338;51.500;6.802;2022-10-16T11:49:58;22.80;91.00
10581;DHT22;5338;51.500;6.802;2022-10-16T11:52:33;22.50;91.80
10581;DHT22;5338;51.500;6.802;2022-10-16T11:55:08;23.40;95.40
10581;DHT22;5338;51.500;6.802;2022-10-16T11:57:44;23.10;88.00
10581;DHT22;5338;51.500;6.802;2022-10-16T12:00:20;23.40;94.40
10581;DHT22;5338;51.500;6.802;2022-10-16T12:02:57;22.80;94.60
10581;DHT22;5338;51.500;6.802;2022-10-16T12:05:35;21.60;97.40
10581;DHT22;5338;51.500;6.802;2022-10-16T12:08:10;20.80;94.60
10581;DHT22;5338;51.500;6.802;2022-10-16T12:10:39;20.20;99.90
10581;DHT22;5338;51.500;6.802;2022-10-16T12:13:31;20.00;99.90
10581;DHT22;5338;51.500;6.802;2022-10-16T12:16:23;19.70;99.90
10581;DHT22;5338;51.500;6.802;2022-10-16T12:19:03;19.60;99.90
10581;DHT22;5338;51.500;6.802;2022-10-16T12:21:36;20.40;99.90
10581;DHT22;5338;51.500;6.802;2022-10-16T12:24:05;20.70;99.90
10581;DHT22;5338;51.500;6.802;2022-10-16T12:26:33;21.50;99.90
10581;DHT22;5338;51.500;6.802;2022-10-16T12:29:14;21.50;99.90
10581;DHT22;5338;51.500;6.802;2022-10-16T12:31:45;21.30;97.80
10581;DHT22;5338;51.500;6.802;2022-10-16T12:34:26;21.10;99.80
10581;DHT22;5338;51.500;6.802;2022-10-16T12:36:54;20.70;99.90
10581;DHT22;5338;51.500;6.802;2022-10-16T12:39:24;20.40;99.90
10581;DHT22;5338;51.500;6.802;2022-10-16T12:42:01;20.30;99.90
10581;DHT22;5338;51.500;6.802;2022-10-16T12:44:33;20.40;99.90
10581;DHT22;5338;51.500;6.802;2022-10-16T12:47:01;20.60;99.90
10581;DHT22;5338;51.500;6.802;2022-10-16T12:49:35;21.00;99.90
10581;DHT22;5338;51.500;6.802;2022-10-16T12:52:03;20.70;99.90
10581;DHT22;5338;51.500;6.802;2022-10-16T12:54:36;20.40;99.90
10581;DHT22;5338;51.500;6.802;2022-10-16T12:57:26;20.10;99.90
10581;DHT22;5338;51.500;6.802;2022-10-16T13:00:03;20.00;99.90
10581;DHT22;5338;51.500;6.802;2022-10-16T13:02:56;19.60;99.90
10581;DHT22;5338;51.500;6.802;2022-10-16T13:05:32;19.70;99.90
10581;DHT22;5338;51.500;6.802;2022-10-16T13:08:13;19.60;99.90
10581;DHT22;5338;51.500;6.802;2022-10-16T13:10:58;19.40;99.90
10581;DHT22;5338;51.500;6.802;2022-10-16T13:13:58;19.20;99.90
10581;DHT22;5338;51.500;6.802;2022-10-16T13:16:33;19.30;99.90
10581;DHT22;5338;51.500;6.802;2022-10-16T13:19:14;19.20;99.90
10581;DHT22;5338;51.500;6.802;2022-10-16T13:21:48;19.00;99.90
10581;DHT22;5338;51.500;6.802;2022-10-16T13:24:33;19.10;99.90
10581;DHT22;5338;51.500;6.802;2022-10-16T13:27:11;19.20;99.90
10581;DHT22;5338;51.500;6.802;2022-10-16T13:32:10;19.10;99.90
10581;DHT22;5338;51.500;6.802;2022-10-16T13:34:45;19.20;99.90
10581;DHT22;5338;51.500;6.802;2022-10-16T13:37:20;18.90;99.90
10581;DHT22;5338;51.500;6.802;2022-10-16T13:39:48;18.90;99.90
10581;DHT22;5338;51.500;6.802;2022-10-16T13:42:22;18.50;99.90
10581;DHT22;5338;51.500;6.802;2022-10-16T13:44:51;18.00;99.90
10581;DHT22;5338;51.500;6.802;2022-10-16T13:47:19;18.70;99.90
10581;DHT22;5338;51.500;6.802;2022-10-16T13:49:47;18.70;99.90
10581;DHT22;5338;51.500;6.802;2022-10-16T13:54:55;18.60;99.90
10581;DHT22;5338;51.500;6.802;2022-10-16T13:57:24;18.40;99.90
10581;DHT22;5338;51.500;6.802;2022-10-16T14:02:22;19.00;99.90
10581;DHT22;5338;51.500;6.802;2022-10-16T14:04:51;18.70;99.90
10581;DHT22;5338;51.500;6.802;2022-10-16T14:07:23;19.00;99.90
10581;DHT22;5338;51.500;6.802;2022-10-16T14:09:51;18.90;99.90
10581;DHT22;5338;51.500;6.802;2022-10-16T14:14:49;18.40;99.90
10581;DHT22;5338;51.500;6.802;2022-10-16T14:17:19;18.50;99.90
10581;DHT22;5338;51.500;6.802;2022-10-16T14:19:48;18.50;99.90
10581;DHT22;5338;51.500;6.802;2022-10-16T14:22:26;17.50;99.90
10581;DHT22;5338;51.500;6.802;2022-10-16T14:27:26;18.40;99.90
10581;DHT22;5338;51.500;6.802;2022-10-16T14:30:12;18.40;99.90
10581;DHT22;5338;51.500;6.802;2022-10-16T14:32:40;18.30;99.90
10581;DHT22;5338;51.500;6.802;2022-10-16T14:35:23;18.50;99.90
10581;DHT22;5338;51.500;6.802;2022-10-16T14:37:52;18.40;99.90
10581;DHT22;5338;51.500;6.802;2022-10-16T14:40:19;18.20;99.90
10581;DHT22;5338;51.500;6.802;2022-10-16T14:42:47;18.50;99.90
10581;DHT22;5338;51.500;6.802;2022-10-16T14:45:19;18.40;99.90
10581;DHT22;5338;51.500;6.802;2022-10-16T14:47:51;18.30;99.90
10581;DHT22;5338;51.500;6.802;2022-10-16T14:50:18;18.50;99.90
10581;DHT22;5338;51.500;6.802;2022-10-16T15:00:16;18.30;99.90
10581;DHT22;5338;51.500;6.802;2022-10-16T15:02:43;18.20;99.90
10581;DHT22;5338;51.500;6.802;2022-10-16T15:05:16;18.20;99.90
10581;DHT22;5338;51.500;6.802;2022-10-16T15:10:11;18.10;99.90
10581;DHT22;5338;51.500;6.802;2022-10-16T15:12:39;18.00;99.90
10581;DHT22;5338;51.500;6.802;2022-10-16T15:15:33;17.90;99.90
10581;DHT22;5338;51.500;6.802;2022-10-16T15:20:29;17.40;99.90
10581;DHT22;5338;51.500;6.802;2022-10-16T15:22:59;18.00;99.90
10581;DHT22;5338;51.500;6.802;2022-10-16T15:25:35;17.90;99.90
10581;DHT22;5338;51.500;6.802;2022-10-16T15:28:04;17.60;99.90
10581;DHT22;5338;51.500;6.802;2022-10-16T15:30:32;17.90;99.90
10581;DHT22;5338;51.500;6.802;2022-10-16T15:32:59;17.80;99.90
10581;DHT22;5338;51.500;6.802;2022-10-16T15:40:21;17.70;99.90
10581;DHT22;5338;51.500;6.802;2022-10-16T15:45:16;18.00;99.90
10581;DHT22;5338;51.500;6.802;2022-10-16T15:47:45;17.70;99.90
10581;DHT22;5338;51.500;6.802;2022-10-16T15:50:14;17.60;99.90
10581;DHT22;5338;51.500;6.802;2022-10-16T15:52:41;17.70;99.90
10581;DHT22;5338;51.500;6.802;2022-10-16T15:55:09;17.60;99.90
10581;DHT22;5338;51.500;6.802;2022-10-16T15:57:37;17.30;99.90
10581;DHT22;5338;51.500;6.802;2022-10-16T16:00:07;17.40;99.90
10581;DHT22;5338;51.500;6.802;2022-10-16T16:05:03;17.30;99.90
10581;DHT22;5338;51.500;6.802;2022-10-16T16:07:35;17.30;99.90
10581;DHT22;5338;51.500;6.802;2022-10-16T16:10:05;17.20;99.90
10581;DHT22;5338;51.500;6.802;2022-10-16T16:12:33;17.20;99.90
10581;DHT22;5338;51.500;6.802;2022-10-16T16:17:27;16.70;99.90
10581;DHT22;5338;51.500;6.802;2022-10-16T16:22:22;17.20;99.90
10581;DHT22;5338;51.500;6.802;2022-10-16T16:27:16;16.90;99.90
10581;DHT22;5338;51.500;6.802;2022-10-16T16:32:12;17.80;99.90
10581;DHT22;5338;51.500;6.802;2022-10-16T16:39:34;17.20;99.90
10581;DHT22;5338;51.500;6.802;2022-10-16T16:44:29;16.60;99.90
10581;DHT22;5338;51.500;6.802;2022-10-16T16:51:52;16.40;99.90
10581;DHT22;5338;51.500;6.802;2022-10-16T16:56:48;16.20;99.90
10581;DHT22;5338;51.500;6.802;2022-10-16T16:59:16;16.40;99.90
10581;DHT22;5338;51.500;6.802;2022-10-16T17:01:43;16.60;99.90
10581;DHT22;5338;51.500;6.802;2022-10-16T17:04:10;16.70;99.90
10581;DHT22;5338;51.500;6.802;2022-10-16T17:06:37;16.30;99.90
10581;DHT22;5338;51.500;6.802;2022-10-16T17:09:05;16.20;99.90
10581;DHT22;5338;51.500;6.802;2022-10-16T17:11:32;16.00;99.90
10581;DHT22;5338;51.500;6.802;2022-10-16T17:14:01;16.30;99.90
10581;DHT22;5338;51.500;6.802;2022-10-16T17:16:31;16.30;99.90
10581;DHT22;5338;51.500;6.802;2022-10-16T17:19:00;16.20;99.90
10581;DHT22;5338;51.500;6.802;2022-10-16T17:21:27;16.10;99.90
10581;DHT22;5338;51.500;6.802;2022-10-16T17:23:55;16.40;99.90
10581;DHT22;5338;51.500;6.802;2022-10-16T17:28:51;16.20;99.90
10581;DHT22;5338;51.500;6.802;2022-10-16T17:31:21;16.20;99.90
10581;DHT22;5338;51.500;6.802;2022-10-16T17:38:43;16.20;99.90
10581;DHT22;5338;51.500;6.802;2022-10-16T17:41:11;16.20;99.90
10581;DHT22;5338;51.500;6.802;2022-10-16T17:43:38;16.20;99.90
10581;DHT22;5338;51.500;6.802;2022-10-16T17:46:06;16.20;99.90
10581;DHT22;5338;51.500;6.802;2022-10-16T17:48:38;16.20;99.90
10581;DHT22;5338;51.500;6.802;2022-10-16T17:51:06;16.30;99.90
10581;DHT22;5338;51.500;6.802;2022-10-16T17:53:33;16.70;99.90
10581;DHT22;5338;51.500;6.802;2022-10-16T17:56:04;16.10;99.90
10581;DHT22;5338;51.500;6.802;2022-10-16T17:58:33;16.10;99.90
10581;DHT22;5338;51.500;6.802;2022-10-16T18:01:00;16.30;99.90
10581;DHT22;5338;51.500;6.802;2022-10-16T18:03:27;16.10;99.90
10581;DHT22;5338;51.500;6.802;2022-10-16T18:05:56;16.10;99.90
10581;DHT22;5338;51.500;6.802;2022-10-16T18:08:22;15.90;99.90
10581;DHT22;5338;51.500;6.802;2022-10-16T18:10:50;16.20;99.90
10581;DHT22;5338;51.500;6.802;2022-10-16T18:23:07;15.80;99.90
10581;DHT22;5338;51.500;6.802;2022-10-16T18:30:28;16.20;99.90
10581;DHT22;5338;51.500;6.802;2022-10-16T18:37:49;15.90;99.90
10581;DHT22;5338;51.500;6.802;2022-10-16T18:40:20;16.00;99.90
10581;DHT22;5338;51.500;6.802;2022-10-16T18:45:14;16.20;99.90
10581;DHT22;5338;51.500;6.802;2022-10-16T18:50:08;15.50;99.90
10581;DHT22;5338;51.500;6.802;2022-10-16T18:57:31;16.20;99.90
10581;DHT22;5338;51.500;6.802;2022-10-16T19:09:46;16.30;99.90
10581;DHT22;5338;51.500;6.802;2022-10-16T19:12:13;16.10;99.90
10581;DHT22;5338;51.500;6.802;2022-10-16T19:14:41;16.20;99.90
10581;DHT22;5338;51.500;6.802;2022-10-16T19:17:08;16.20;99.90
10581;DHT22;5338;51.500;6.802;2022-10-16T19:19:34;16.20;99.90
10581;DHT22;5338;51.500;6.802;2022-10-16T19:24:43;16.10;99.90
10581;DHT22;5338;51.500;6.802;2022-10-16T19:27:09;16.20;99.90
10581;DHT22;5338;51.500;6.802;2022-10-16T19:29:36;15.90;99.90
10581;DHT22;5338;51.500;6.802;2022-10-16T19:32:05;16.00;99.90
10581;DHT22;5338;51.500;6.802;2022-10-16T19:34:33;16.20;99.90
10581;DHT22;5338;51.500;6.802;2022-10-16T19:37:00;15.90;99.90
10581;DHT22;5338;51.500;6.802;2022-10-16T19:41:54;16.10;99.90
10581;DHT22;5338;51.500;6.802;2022-10-16T19:44:20;15.80;99.90
10581;DHT22;5338;51.500;6.802;2022-10-16T19:49:17;15.60;99.90
10581;DHT22;5338;51.500;6.802;2022-10-16T19:51:46;15.90;99.90
10581;DHT22;5338;51.500;6.802;2022-10-16T19:54:15;16.10;99.90
10581;DHT22;5338;51.500;6.802;2022-10-16T19:56:42;16.00;99.90
10581;DHT22;5338;51.500;6.802;2022-10-16T19:59:11;16.00;99.90
10581;DHT22;5338;51.500;6.802;2022-10-16T20:01:40;15.80;99.90
10581;DHT22;5338;51.500;6.802;2022-10-16T20:04:08;15.90;99.90
10581;DHT22;5338;51.500;6.802;2022-10-16T20:06:36;15.70;99.90
10581;DHT22;5338;51.500;6.802;2022-10-16T20:09:03;15.70;99.90